sensor_id;sensor_type;location;lat;lon;timestamp;P1;durP1;ratioP1;P2;durP2;ratioP2
30307;SDS011;17114;52.314;8.910;2022-09-17T00:01:00;13.18;;;2.75;;
30307;SDS011;17114;52.314;8.910;2022-09-17T00:03:28;9.77;;;2.53;;
30307;SDS011;17114;52.314;8.910;2022-09-17T00:06:02;17.92;;;2.67;;
30307;SDS011;17114;52.314;8.910;2022-09-17T00:08:31;15.00;;;2.97;;
30307;SDS011;17114;52.314;8.910;2022-09-17T00:11:04;16.48;;;3.22;;
30307;SDS011;17114;52.314;8.910;2022-09-17T00:13:36;14.63;;;2.83;;
30307;SDS011;17114;52.314;8.910;2022-09-17T00:16:02;16.02;;;2.80;;
30307;SDS011;17114;52.314;8.910;2022-09-17T00:18:30;14.30;;;3.05;;
30307;SDS011;17114;52.314;8.910;2022-09-17T00:20:57;15.52;;;3.50;;
30307;SDS011;17114;52.314;8.910;2022-09-17T00:23:24;19.48;;;3.85;;
30307;SDS011;17114;52.314;8.910;2022-09-17T00:25:51;18.42;;;3.60;;
30307;SDS011;17114;52.314;8.910;2022-09-17T00:28:18;24.98;;;4.50;;
30307;SDS011;17114;52.314;8.910;2022-09-17T00:30:45;22.00;;;4.07;;
30307;SDS011;17114;52.314;8.910;2022-09-17T00:33:13;9.70;;;3.13;;
30307;SDS011;17114;52.314;8.910;2022-09-17T00:35:42;19.80;;;4.32;;
30307;SDS011;17114;52.314;8.910;2022-09-17T00:38:09;17.30;;;3.53;;
30307;SDS011;17114;52.314;8.910;2022-09-17T00:40:36;15.73;;;3.50;;
30307;SDS011;17114;52.314;8.910;2022-09-17T00:43:03;16.50;;;4.00;;
30307;SDS011;17114;52.314;8.910;2022-09-17T00:45:35;15.43;;;3.38;;
30307;SDS011;17114;52.314;8.910;2022-09-17T00:48:05;15.23;;;3.70;;
30307;SDS011;17114;52.314;8.910;2022-09-17T00:50:33;22.75;;;4.10;;
30307;SDS011;17114;52.314;8.910;2022-09-17T00:53:07;26.30;;;4.50;;
30307;SDS011;17114;52.314;8.910;2022-09-17T00:55:48;22.02;;;4.20;;
30307;SDS011;17114;52.314;8.910;2022-09-17T00:58:51;19.98;;;4.18;;
30307;SDS011;17114;52.314;8.910;2022-09-17T01:01:18;19.83;;;4.22;;
30307;SDS011;17114;52.314;8.910;2022-09-17T01:03:45;23.13;;;4.95;;
30307;SDS011;17114;52.314;8.910;2022-09-17T01:06:15;24.13;;;4.28;;
30307;SDS011;17114;52.314;8.910;2022-09-17T01:08:56;22.17;;;4.55;;
30307;SDS011;17114;52.314;8.910;2022-09-17T01:15:10;15.20;;;3.53;;
30307;SDS011;17114;52.314;8.910;2022-09-17T01:23:25;21.67;;;4.32;;
30307;SDS011;17114;52.314;8.910;2022-09-17T01:28:56;21.85;;;3.83;;
30307;SDS011;17114;52.314;8.910;2022-09-17T01:31:54;19.45;;;3.65;;
30307;SDS011;17114;52.314;8.910;2022-09-17T01:34:40;25.02;;;4.20;;
30307;SDS011;17114;52.314;8.910;2022-09-17T01:37:22;24.42;;;3.60;;
30307;SDS011;17114;52.314;8.910;2022-09-17T01:40:04;20.33;;;4.10;;
30307;SDS011;17114;52.314;8.910;2022-09-17T01:42:54;18.88;;;3.83;;
30307;SDS011;17114;52.314;8.910;2022-09-17T01:45:49;25.23;;;4.00;;
30307;SDS011;17114;52.314;8.910;2022-09-17T01:48:19;19.58;;;4.25;;
30307;SDS011;17114;52.314;8.910;2022-09-17T01:50:51;27.50;;;3.83;;
30307;SDS011;17114;52.314;8.910;2022-09-17T01:53:29;21.57;;;3.63;;
30307;SDS011;17114;52.314;8.910;2022-09-17T01:56:18;23.52;;;3.67;;
30307;SDS011;17114;52.314;8.910;2022-09-17T01:58:57;20.58;;;3.40;;
30307;SDS011;17114;52.314;8.910;2022-09-17T02:01:38;24.23;;;4.47;;
30307;SDS011;17114;52.314;8.910;2022-09-17T02:04:09;22.45;;;3.47;;
30307;SDS011;17114;52.314;8.910;2022-09-17T02:06:44;25.10;;;3.55;;
30307;SDS011;17114;52.314;8.910;2022-09-17T02:09:17;21.88;;;4.35;;
30307;SDS011;17114;52.314;8.910;2022-09-17T02:11:50;25.23;;;3.50;;
30307;SDS011;17114;52.314;8.910;2022-09-17T02:14:22;21.20;;;2.92;;
30307;SDS011;17114;52.314;8.910;2022-09-17T02:16:59;19.58;;;3.55;;
30307;SDS011;17114;52.314;8.910;2022-09-17T02:19:34;21.85;;;3.38;;
30307;SDS011;17114;52.314;8.910;2022-09-17T02:27:57;24.98;;;3.30;;
30307;SDS011;17114;52.314;8.910;2022-09-17T02:30:28;22.92;;;3.83;;
30307;SDS011;17114;52.314;8.910;2022-09-17T02:32:55;20.42;;;3.25;;
30307;SDS011;17114;52.314;8.910;2022-09-17T02:35:22;24.98;;;3.50;;
30307;SDS011;17114;52.314;8.910;2022-09-17T02:37:49;24.42;;;3.72;;
30307;SDS011;17114;52.314;8.910;2022-09-17T02:40:18;16.98;;;2.95;;
30307;SDS011;17114;52.314;8.910;2022-09-17T02:43:12;18.45;;;3.03;;
30307;SDS011;17114;52.314;8.910;2022-09-17T02:51:44;30.65;;;4.22;;
30307;SDS011;17114;52.314;8.910;2022-09-17T02:54:32;24.63;;;3.40;;
30307;SDS011;17114;52.314;8.910;2022-09-17T03:00:08;23.92;;;3.58;;
30307;SDS011;17114;52.314;8.910;2022-09-17T03:05:22;28.40;;;3.67;;
30307;SDS011;17114;52.314;8.910;2022-09-17T03:07:51;21.10;;;3.58;;
30307;SDS011;17114;52.314;8.910;2022-09-17T03:10:21;28.95;;;4.00;;
30307;SDS011;17114;52.314;8.910;2022-09-17T03:12:48;29.02;;;4.15;;
30307;SDS011;17114;52.314;8.910;2022-09-17T03:15:15;33.80;;;4.63;;
30307;SDS011;17114;52.314;8.910;2022-09-17T03:17:42;29.63;;;3.63;;
30307;SDS011;17114;52.314;8.910;2022-09-17T03:20:09;22.65;;;3.60;;
30307;SDS011;17114;52.314;8.910;2022-09-17T03:22:35;24.85;;;4.00;;
30307;SDS011;17114;52.314;8.910;2022-09-17T03:25:02;21.42;;;3.92;;
30307;SDS011;17114;52.314;8.910;2022-09-17T03:27:29;27.55;;;3.90;;
30307;SDS011;17114;52.314;8.910;2022-09-17T03:29:56;26.17;;;3.83;;
30307;SDS011;17114;52.314;8.910;2022-09-17T03:32:23;26.75;;;3.67;;
30307;SDS011;17114;52.314;8.910;2022-09-17T03:34:50;24.95;;;4.10;;
30307;SDS011;17114;52.314;8.910;2022-09-17T03:37:17;30.25;;;4.40;;
30307;SDS011;17114;52.314;8.910;2022-09-17T03:39:43;29.20;;;4.47;;
30307;SDS011;17114;52.314;8.910;2022-09-17T03:42:10;19.42;;;3.20;;
30307;SDS011;17114;52.314;8.910;2022-09-17T03:44:37;29.85;;;4.35;;
30307;SDS011;17114;52.314;8.910;2022-09-17T03:47:09;32.25;;;4.18;;
30307;SDS011;17114;52.314;8.910;2022-09-17T03:49:37;21.15;;;4.07;;
30307;SDS011;17114;52.314;8.910;2022-09-17T03:52:04;22.75;;;3.22;;
30307;SDS011;17114;52.314;8.910;2022-09-17T03:54:31;23.02;;;3.40;;
30307;SDS011;17114;52.314;8.910;2022-09-17T03:56:58;22.85;;;3.15;;
30307;SDS011;17114;52.314;8.910;2022-09-17T03:59:25;31.83;;;5.03;;
30307;SDS011;17114;52.314;8.910;2022-09-17T04:01:52;34.15;;;3.95;;
30307;SDS011;17114;52.314;8.910;2022-09-17T04:04:19;23.48;;;3.60;;
30307;SDS011;17114;52.314;8.910;2022-09-17T04:06:46;25.23;;;2.88;;
30307;SDS011;17114;52.314;8.910;2022-09-17T04:09:12;26.60;;;3.10;;
30307;SDS011;17114;52.314;8.910;2022-09-17T04:11:39;26.45;;;3.30;;
30307;SDS011;17114;52.314;8.910;2022-09-17T04:14:06;19.50;;;3.03;;
30307;SDS011;17114;52.314;8.910;2022-09-17T04:16:33;22.23;;;3.05;;
30307;SDS011;17114;52.314;8.910;2022-09-17T04:19:00;19.88;;;3.75;;
30307;SDS011;17114;52.314;8.910;2022-09-17T04:21:27;21.50;;;4.00;;
30307;SDS011;17114;52.314;8.910;2022-09-17T04:23:53;18.08;;;2.60;;
30307;SDS011;17114;52.314;8.910;2022-09-17T04:26:20;31.50;;;3.78;;
30307;SDS011;17114;52.314;8.910;2022-09-17T04:28:47;24.83;;;3.33;;
30307;SDS011;17114;52.314;8.910;2022-09-17T04:31:14;20.42;;;3.25;;
30307;SDS011;17114;52.314;8.910;2022-09-17T04:33:41;34.97;;;3.42;;
30307;SDS011;17114;52.314;8.910;2022-09-17T04:36:08;28.88;;;3.53;;
30307;SDS011;17114;52.314;8.910;2022-09-17T04:38:35;22.05;;;3.78;;
30307;SDS011;17114;52.314;8.910;2022-09-17T04:41:02;17.73;;;2.92;;
30307;SDS011;17114;52.314;8.910;2022-09-17T04:43:32;21.73;;;2.95;;
30307;SDS011;17114;52.314;8.910;2022-09-17T04:45:59;22.38;;;3.85;;
30307;SDS011;17114;52.314;8.910;2022-09-17T04:48:26;26.27;;;3.90;;
30307;SDS011;17114;52.314;8.910;2022-09-17T04:50:53;28.17;;;4.18;;
30307;SDS011;17114;52.314;8.910;2022-09-17T04:53:19;20.85;;;2.50;;
30307;SDS011;17114;52.314;8.910;2022-09-17T04:55:46;21.83;;;3.63;;
30307;SDS011;17114;52.314;8.910;2022-09-17T04:58:13;21.20;;;3.08;;
30307;SDS011;17114;52.314;8.910;2022-09-17T05:00:40;18.25;;;3.17;;
30307;SDS011;17114;52.314;8.910;2022-09-17T05:03:07;21.38;;;2.90;;
30307;SDS011;17114;52.314;8.910;2022-09-17T05:05:34;29.10;;;4.35;;
30307;SDS011;17114;52.314;8.910;2022-09-17T05:08:01;21.10;;;3.15;;
30307;SDS011;17114;52.314;8.910;2022-09-17T05:10:28;25.98;;;3.28;;
30307;SDS011;17114;52.314;8.910;2022-09-17T05:12:55;18.08;;;3.70;;
30307;SDS011;17114;52.314;8.910;2022-09-17T05:15:23;15.88;;;3.00;;
30307;SDS011;17114;52.314;8.910;2022-09-17T05:17:51;28.15;;;3.50;;
30307;SDS011;17114;52.314;8.910;2022-09-17T05:20:18;20.55;;;2.92;;
30307;SDS011;17114;52.314;8.910;2022-09-17T05:22:46;20.13;;;2.92;;
30307;SDS011;17114;52.314;8.910;2022-09-17T05:25:15;23.48;;;3.20;;
30307;SDS011;17114;52.314;8.910;2022-09-17T05:27:43;20.70;;;3.00;;
30307;SDS011;17114;52.314;8.910;2022-09-17T05:30:10;22.45;;;3.58;;
30307;SDS011;17114;52.314;8.910;2022-09-17T05:32:38;21.77;;;3.20;;
30307;SDS011;17114;52.314;8.910;2022-09-17T05:35:06;23.70;;;2.95;;
30307;SDS011;17114;52.314;8.910;2022-09-17T05:37:34;19.45;;;2.65;;
30307;SDS011;17114;52.314;8.910;2022-09-17T05:40:02;14.43;;;2.97;;
30307;SDS011;17114;52.314;8.910;2022-09-17T05:42:32;18.48;;;2.80;;
30307;SDS011;17114;52.314;8.910;2022-09-17T05:44:59;18.52;;;3.00;;
30307;SDS011;17114;52.314;8.910;2022-09-17T05:47:26;24.70;;;3.08;;
30307;SDS011;17114;52.314;8.910;2022-09-17T05:49:52;18.23;;;3.42;;
30307;SDS011;17114;52.314;8.910;2022-09-17T05:52:19;25.75;;;3.42;;
30307;SDS011;17114;52.314;8.910;2022-09-17T05:54:46;26.63;;;3.53;;
30307;SDS011;17114;52.314;8.910;2022-09-17T05:57:13;27.80;;;3.25;;
30307;SDS011;17114;52.314;8.910;2022-09-17T05:59:41;21.35;;;3.75;;
30307;SDS011;17114;52.314;8.910;2022-09-17T06:02:10;17.35;;;2.53;;
30307;SDS011;17114;52.314;8.910;2022-09-17T06:04:39;16.88;;;2.90;;
30307;SDS011;17114;52.314;8.910;2022-09-17T06:07:06;23.33;;;3.53;;
30307;SDS011;17114;52.314;8.910;2022-09-17T06:09:34;24.48;;;3.22;;
30307;SDS011;17114;52.314;8.910;2022-09-17T06:12:03;18.17;;;3.42;;
30307;SDS011;17114;52.314;8.910;2022-09-17T06:14:30;23.83;;;3.05;;
30307;SDS011;17114;52.314;8.910;2022-09-17T06:16:57;22.17;;;3.55;;
30307;SDS011;17114;52.314;8.910;2022-09-17T06:19:26;25.48;;;3.03;;
30307;SDS011;17114;52.314;8.910;2022-09-17T06:21:53;20.85;;;3.63;;
30307;SDS011;17114;52.314;8.910;2022-09-17T06:24:20;30.80;;;4.65;;
30307;SDS011;17114;52.314;8.910;2022-09-17T06:26:47;22.25;;;3.20;;
30307;SDS011;17114;52.314;8.910;2022-09-17T06:29:14;22.10;;;2.92;;
30307;SDS011;17114;52.314;8.910;2022-09-17T06:31:41;19.70;;;2.67;;
30307;SDS011;17114;52.314;8.910;2022-09-17T06:34:11;25.33;;;2.70;;
30307;SDS011;17114;52.314;8.910;2022-09-17T06:36:38;16.38;;;2.83;;
30307;SDS011;17114;52.314;8.910;2022-09-17T06:39:05;16.73;;;2.72;;
30307;SDS011;17114;52.314;8.910;2022-09-17T06:41:32;16.25;;;2.15;;
30307;SDS011;17114;52.314;8.910;2022-09-17T06:43:59;21.70;;;3.42;;
30307;SDS011;17114;52.314;8.910;2022-09-17T06:46:27;18.73;;;2.83;;
30307;SDS011;17114;52.314;8.910;2022-09-17T06:48:54;12.02;;;2.58;;
30307;SDS011;17114;52.314;8.910;2022-09-17T06:51:21;18.45;;;2.70;;
30307;SDS011;17114;52.314;8.910;2022-09-17T06:53:48;17.73;;;3.00;;
30307;SDS011;17114;52.314;8.910;2022-09-17T06:56:15;15.85;;;2.28;;
30307;SDS011;17114;52.314;8.910;2022-09-17T06:58:43;16.13;;;2.88;;
30307;SDS011;17114;52.314;8.910;2022-09-17T07:01:10;18.98;;;3.45;;
30307;SDS011;17114;52.314;8.910;2022-09-17T07:03:38;19.25;;;3.17;;
30307;SDS011;17114;52.314;8.910;2022-09-17T07:06:08;15.77;;;2.58;;
30307;SDS011;17114;52.314;8.910;2022-09-17T07:08:36;16.55;;;3.15;;
30307;SDS011;17114;52.314;8.910;2022-09-17T07:11:04;19.95;;;2.53;;
30307;SDS011;17114;52.314;8.910;2022-09-17T07:13:31;14.35;;;2.38;;
30307;SDS011;17114;52.314;8.910;2022-09-17T07:15:59;15.50;;;2.60;;
30307;SDS011;17114;52.314;8.910;2022-09-17T07:18:27;19.08;;;2.78;;
30307;SDS011;17114;52.314;8.910;2022-09-17T07:20:58;15.20;;;2.47;;
30307;SDS011;17114;52.314;8.910;2022-09-17T07:23:30;16.48;;;2.33;;
30307;SDS011;17114;52.314;8.910;2022-09-17T07:25:59;14.70;;;3.03;;
30307;SDS011;17114;52.314;8.910;2022-09-17T07:28:28;12.80;;;2.45;;
30307;SDS011;17114;52.314;8.910;2022-09-17T07:30:55;13.65;;;2.63;;
30307;SDS011;17114;52.314;8.910;2022-09-17T07:33:24;16.83;;;2.60;;
30307;SDS011;17114;52.314;8.910;2022-09-17T07:35:53;18.30;;;2.58;;
30307;SDS011;17114;52.314;8.910;2022-09-17T07:38:24;9.40;;;1.85;;
30307;SDS011;17114;52.314;8.910;2022-09-17T07:40:53;15.27;;;2.15;;
30307;SDS011;17114;52.314;8.910;2022-09-17T07:43:27;11.90;;;2.22;;
30307;SDS011;17114;52.314;8.910;2022-09-17T07:45:56;15.63;;;2.70;;
30307;SDS011;17114;52.314;8.910;2022-09-17T07:48:24;20.45;;;2.35;;
30307;SDS011;17114;52.314;8.910;2022-09-17T07:50:53;10.63;;;2.50;;
30307;SDS011;17114;52.314;8.910;2022-09-17T07:53:20;13.35;;;2.28;;
30307;SDS011;17114;52.314;8.910;2022-09-17T07:55:55;16.15;;;2.13;;
30307;SDS011;17114;52.314;8.910;2022-09-17T08:00:58;8.40;;;2.08;;
30307;SDS011;17114;52.314;8.910;2022-09-17T08:03:26;12.07;;;1.90;;
30307;SDS011;17114;52.314;8.910;2022-09-17T08:05:53;10.52;;;2.20;;
30307;SDS011;17114;52.314;8.910;2022-09-17T08:08:32;16.45;;;3.10;;
30307;SDS011;17114;52.314;8.910;2022-09-17T08:11:01;11.90;;;1.95;;
30307;SDS011;17114;52.314;8.910;2022-09-17T08:13:30;15.30;;;2.60;;
30307;SDS011;17114;52.314;8.910;2022-09-17T08:16:04;12.32;;;2.15;;
30307;SDS011;17114;52.314;8.910;2022-09-17T08:18:33;10.38;;;2.40;;
30307;SDS011;17114;52.314;8.910;2022-09-17T08:21:02;10.70;;;2.00;;
30307;SDS011;17114;52.314;8.910;2022-09-17T08:23:32;9.63;;;2.10;;
30307;SDS011;17114;52.314;8.910;2022-09-17T08:26:00;11.95;;;2.45;;
30307;SDS011;17114;52.314;8.910;2022-09-17T08:28:28;11.02;;;1.90;;
30307;SDS011;17114;52.314;8.910;2022-09-17T08:31:03;14.57;;;2.53;;
30307;SDS011;17114;52.314;8.910;2022-09-17T08:33:34;13.00;;;2.10;;
30307;SDS011;17114;52.314;8.910;2022-09-17T08:36:03;11.15;;;1.77;;
30307;SDS011;17114;52.314;8.910;2022-09-17T08:38:32;12.73;;;2.38;;
30307;SDS011;17114;52.314;8.910;2022-09-17T08:41:06;13.13;;;2.45;;
30307;SDS011;17114;52.314;8.910;2022-09-17T08:46:16;14.80;;;2.60;;
30307;SDS011;17114;52.314;8.910;2022-09-17T08:48:46;14.02;;;2.60;;
30307;SDS011;17114;52.314;8.910;2022-09-17T08:51:27;13.18;;;2.33;;
30307;SDS011;17114;52.314;8.910;2022-09-17T08:54:28;18.02;;;2.60;;
30307;SDS011;17114;52.314;8.910;2022-09-17T08:57:06;9.75;;;2.20;;
30307;SDS011;17114;52.314;8.910;2022-09-17T09:00:32;10.80;;;2.33;;
30307;SDS011;17114;52.314;8.910;2022-09-17T09:05:41;12.75;;;2.08;;
30307;SDS011;17114;52.314;8.910;2022-09-17T09:08:21;18.65;;;2.95;;
30307;SDS011;17114;52.314;8.910;2022-09-17T09:10:55;11.35;;;2.00;;
30307;SDS011;17114;52.314;8.910;2022-09-17T09:13:31;14.40;;;2.38;;
30307;SDS011;17114;52.314;8.910;2022-09-17T09:16:12;6.82;;;1.67;;
30307;SDS011;17114;52.314;8.910;2022-09-17T09:18:53;13.02;;;2.00;;
30307;SDS011;17114;52.314;8.910;2022-09-17T09:21:25;9.35;;;2.63;;
30307;SDS011;17114;52.314;8.910;2022-09-17T09:29:39;16.70;;;2.53;;
30307;SDS011;17114;52.314;8.910;2022-09-17T09:34:59;13.23;;;2.65;;
30307;SDS011;17114;52.314;8.910;2022-09-17T09:37:37;11.23;;;2.03;;
30307;SDS011;17114;52.314;8.910;2022-09-17T09:40:30;15.85;;;2.67;;
30307;SDS011;17114;52.314;8.910;2022-09-17T09:43:16;14.05;;;2.10;;
30307;SDS011;17114;52.314;8.910;2022-09-17T09:57:14;10.25;;;1.80;;
30307;SDS011;17114;52.314;8.910;2022-09-17T09:59:46;6.40;;;1.60;;
30307;SDS011;17114;52.314;8.910;2022-09-17T10:02:13;9.75;;;1.70;;
30307;SDS011;17114;52.314;8.910;2022-09-17T10:04:40;11.10;;;1.90;;
30307;SDS011;17114;52.314;8.910;2022-09-17T10:07:08;5.82;;;1.92;;
30307;SDS011;17114;52.314;8.910;2022-09-17T10:09:37;8.82;;;1.70;;
30307;SDS011;17114;52.314;8.910;2022-09-17T10:14:37;9.65;;;1.65;;
30307;SDS011;17114;52.314;8.910;2022-09-17T10:17:22;9.48;;;1.50;;
30307;SDS011;17114;52.314;8.910;2022-09-17T10:22:40;11.00;;;2.10;;
30307;SDS011;17114;52.314;8.910;2022-09-17T10:28:00;6.70;;;1.48;;
30307;SDS011;17114;52.314;8.910;2022-09-17T10:30:30;17.27;;;2.45;;
30307;SDS011;17114;52.314;8.910;2022-09-17T10:33:17;8.70;;;2.20;;
30307;SDS011;17114;52.314;8.910;2022-09-17T10:35:55;10.70;;;2.25;;
30307;SDS011;17114;52.314;8.910;2022-09-17T10:38:28;8.10;;;1.83;;
30307;SDS011;17114;52.314;8.910;2022-09-17T10:41:17;10.70;;;1.73;;
30307;SDS011;17114;52.314;8.910;2022-09-17T10:43:47;10.77;;;1.48;;
30307;SDS011;17114;52.314;8.910;2022-09-17T10:46:15;10.07;;;2.00;;
30307;SDS011;17114;52.314;8.910;2022-09-17T10:51:30;8.80;;;1.88;;
30307;SDS011;17114;52.314;8.910;2022-09-17T10:54:06;13.52;;;1.88;;
30307;SDS011;17114;52.314;8.910;2022-09-17T10:56:48;10.93;;;1.85;;
30307;SDS011;17114;52.314;8.910;2022-09-17T11:23:29;14.18;;;2.20;;
30307;SDS011;17114;52.314;8.910;2022-09-17T11:31:45;11.07;;;1.80;;
30307;SDS011;17114;52.314;8.910;2022-09-17T11:37:12;7.65;;;1.50;;
30307;SDS011;17114;52.314;8.910;2022-09-17T11:39:54;6.60;;;1.50;;
30307;SDS011;17114;52.314;8.910;2022-09-17T11:42:36;6.63;;;1.50;;
30307;SDS011;17114;52.314;8.910;2022-09-17T11:45:05;6.82;;;1.55;;
30307;SDS011;17114;52.314;8.910;2022-09-17T11:47:45;10.15;;;1.50;;
30307;SDS011;17114;52.314;8.910;2022-09-17T11:50:27;7.03;;;1.25;;
30307;SDS011;17114;52.314;8.910;2022-09-17T11:53:10;8.85;;;1.30;;
30307;SDS011;17114;52.314;8.910;2022-09-17T12:01:08;5.53;;;1.52;;
30307;SDS011;17114;52.314;8.910;2022-09-17T12:03:42;4.90;;;1.38;;
30307;SDS011;17114;52.314;8.910;2022-09-17T12:06:36;7.32;;;1.65;;
30307;SDS011;17114;52.314;8.910;2022-09-17T12:09:16;8.15;;;1.73;;
30307;SDS011;17114;52.314;8.910;2022-09-17T12:15:02;7.05;;;1.50;;
30307;SDS011;17114;52.314;8.910;2022-09-17T12:17:43;9.70;;;1.33;;
30307;SDS011;17114;52.314;8.910;2022-09-17T12:20:39;5.70;;;1.17;;
30307;SDS011;17114;52.314;8.910;2022-09-17T12:23:10;4.85;;;1.40;;
30307;SDS011;17114;52.314;8.910;2022-09-17T12:28:29;10.07;;;1.40;;
30307;SDS011;17114;52.314;8.910;2022-09-17T12:31:06;7.85;;;1.48;;
30307;SDS011;17114;52.314;8.910;2022-09-17T12:33:45;6.60;;;1.30;;
30307;SDS011;17114;52.314;8.910;2022-09-17T12:36:46;6.65;;;1.58;;
30307;SDS011;17114;52.314;8.910;2022-09-17T12:51:24;4.88;;;1.25;;
30307;SDS011;17114;52.314;8.910;2022-09-17T12:59:53;8.05;;;1.20;;
30307;SDS011;17114;52.314;8.910;2022-09-17T13:05:33;5.53;;;1.20;;
30307;SDS011;17114;52.314;8.910;2022-09-17T13:18:46;9.63;;;1.92;;
30307;SDS011;17114;52.314;8.910;2022-09-17T13:24:21;12.23;;;1.80;;
30307;SDS011;17114;52.314;8.910;2022-09-17T13:26:51;11.30;;;1.42;;
30307;SDS011;17114;52.314;8.910;2022-09-17T13:37:55;5.95;;;1.30;;
30307;SDS011;17114;52.314;8.910;2022-09-17T13:40:34;3.15;;;0.90;;
30307;SDS011;17114;52.314;8.910;2022-09-17T13:43:07;4.68;;;1.08;;
30307;SDS011;17114;52.314;8.910;2022-09-17T13:46:24;6.32;;;1.27;;
30307;SDS011;17114;52.314;8.910;2022-09-17T13:48:28;5.70;;;1.25;;
30307;SDS011;17114;52.314;8.910;2022-09-17T13:51:43;6.55;;;1.70;;
30307;SDS011;17114;52.314;8.910;2022-09-17T13:56:32;8.35;;;1.25;;
30307;SDS011;17114;52.314;8.910;2022-09-17T13:59:22;5.28;;;1.60;;
30307;SDS011;17114;52.314;8.910;2022-09-17T14:02:01;8.77;;;1.40;;
30307;SDS011;17114;52.314;8.910;2022-09-17T14:08:05;10.82;;;1.58;;
30307;SDS011;17114;52.314;8.910;2022-09-17T14:09:58;6.75;;;1.17;;
30307;SDS011;17114;52.314;8.910;2022-09-17T14:18:00;15.15;;;2.97;;
30307;SDS011;17114;52.314;8.910;2022-09-17T14:20:31;11.50;;;1.70;;
30307;SDS011;17114;52.314;8.910;2022-09-17T14:22:59;8.07;;;1.70;;
30307;SDS011;17114;52.314;8.910;2022-09-17T14:25:39;9.27;;;1.75;;
30307;SDS011;17114;52.314;8.910;2022-09-17T14:28:15;9.43;;;1.67;;
30307;SDS011;17114;52.314;8.910;2022-09-17T14:30:53;9.80;;;1.65;;
30307;SDS011;17114;52.314;8.910;2022-09-17T14:33:25;9.38;;;1.42;;
30307;SDS011;17114;52.314;8.910;2022-09-17T14:35:59;10.80;;;2.17;;
30307;SDS011;17114;52.314;8.910;2022-09-17T14:39:07;7.88;;;1.40;;
30307;SDS011;17114;52.314;8.910;2022-09-17T14:41:30;9.57;;;2.03;;
30307;SDS011;17114;52.314;8.910;2022-09-17T14:44:12;12.35;;;1.48;;
30307;SDS011;17114;52.314;8.910;2022-09-17T14:49:23;6.97;;;1.33;;
30307;SDS011;17114;52.314;8.910;2022-09-17T14:51:51;5.78;;;1.30;;
30307;SDS011;17114;52.314;8.910;2022-09-17T14:54:23;5.18;;;1.42;;
30307;SDS011;17114;52.314;8.910;2022-09-17T15:05:01;9.68;;;1.65;;
30307;SDS011;17114;52.314;8.910;2022-09-17T15:07:45;7.30;;;1.38;;
30307;SDS011;17114;52.314;8.910;2022-09-17T15:10:17;6.40;;;1.60;;
30307;SDS011;17114;52.314;8.910;2022-09-17T15:12:46;6.78;;;1.65;;
30307;SDS011;17114;52.314;8.910;2022-09-17T15:15:16;11.07;;;1.80;;
30307;SDS011;17114;52.314;8.910;2022-09-17T15:17:46;13.80;;;1.73;;
30307;SDS011;17114;52.314;8.910;2022-09-17T15:20:15;9.65;;;1.92;;
30307;SDS011;17114;52.314;8.910;2022-09-17T15:22:49;13.15;;;2.15;;
30307;SDS011;17114;52.314;8.910;2022-09-17T15:25:28;13.73;;;2.47;;
30307;SDS011;17114;52.314;8.910;2022-09-17T15:27:56;23.40;;;3.08;;
30307;SDS011;17114;52.314;8.910;2022-09-17T15:30:29;13.10;;;1.85;;
30307;SDS011;17114;52.314;8.910;2022-09-17T15:32:57;9.85;;;2.30;;
30307;SDS011;17114;52.314;8.910;2022-09-17T15:35:26;8.38;;;1.60;;
30307;SDS011;17114;52.314;8.910;2022-09-17T15:38:40;7.80;;;1.60;;
30307;SDS011;17114;52.314;8.910;2022-09-17T15:40:51;7.82;;;1.30;;
30307;SDS011;17114;52.314;8.910;2022-09-17T15:48:46;9.45;;;1.35;;
30307;SDS011;17114;52.314;8.910;2022-09-17T15:51:24;8.48;;;1.77;;
30307;SDS011;17114;52.314;8.910;2022-09-17T15:53:55;8.55;;;2.17;;
30307;SDS011;17114;52.314;8.910;2022-09-17T15:56:28;9.23;;;2.00;;
30307;SDS011;17114;52.314;8.910;2022-09-17T16:01:56;10.68;;;1.77;;
30307;SDS011;17114;52.314;8.910;2022-09-17T16:04:29;11.75;;;2.22;;
30307;SDS011;17114;52.314;8.910;2022-09-17T16:12:05;11.05;;;2.05;;
30307;SDS011;17114;52.314;8.910;2022-09-17T16:14:32;12.05;;;1.85;;
30307;SDS011;17114;52.314;8.910;2022-09-17T16:17:07;13.02;;;1.95;;
30307;SDS011;17114;52.314;8.910;2022-09-17T16:19:55;19.43;;;2.50;;
30307;SDS011;17114;52.314;8.910;2022-09-17T16:22:22;11.80;;;1.90;;
30307;SDS011;17114;52.314;8.910;2022-09-17T16:24:51;11.32;;;1.90;;
30307;SDS011;17114;52.314;8.910;2022-09-17T16:27:20;13.68;;;2.28;;
30307;SDS011;17114;52.314;8.910;2022-09-17T16:29:50;20.27;;;3.28;;
30307;SDS011;17114;52.314;8.910;2022-09-17T16:32:19;14.63;;;2.55;;
30307;SDS011;17114;52.314;8.910;2022-09-17T16:34:46;11.18;;;2.22;;
30307;SDS011;17114;52.314;8.910;2022-09-17T16:37:13;22.38;;;3.00;;
30307;SDS011;17114;52.314;8.910;2022-09-17T16:39:40;14.27;;;2.70;;
30307;SDS011;17114;52.314;8.910;2022-09-17T16:42:07;16.67;;;2.25;;
30307;SDS011;17114;52.314;8.910;2022-09-17T16:44:34;23.00;;;3.42;;
30307;SDS011;17114;52.314;8.910;2022-09-17T16:47:01;16.00;;;2.92;;
30307;SDS011;17114;52.314;8.910;2022-09-17T16:49:28;15.70;;;2.42;;
30307;SDS011;17114;52.314;8.910;2022-09-17T16:51:55;20.55;;;3.05;;
30307;SDS011;17114;52.314;8.910;2022-09-17T16:54:22;18.08;;;3.00;;
30307;SDS011;17114;52.314;8.910;2022-09-17T16:56:49;17.80;;;2.80;;
30307;SDS011;17114;52.314;8.910;2022-09-17T16:59:16;12.13;;;2.30;;
30307;SDS011;17114;52.314;8.910;2022-09-17T17:01:43;17.83;;;2.90;;
30307;SDS011;17114;52.314;8.910;2022-09-17T17:04:10;14.30;;;2.63;;
30307;SDS011;17114;52.314;8.910;2022-09-17T17:06:37;15.93;;;2.63;;
30307;SDS011;17114;52.314;8.910;2022-09-17T17:09:04;14.93;;;2.15;;
30307;SDS011;17114;52.314;8.910;2022-09-17T17:11:30;21.27;;;3.58;;
30307;SDS011;17114;52.314;8.910;2022-09-17T17:13:57;22.13;;;3.60;;
30307;SDS011;17114;52.314;8.910;2022-09-17T17:16:26;38.47;;;3.40;;
30307;SDS011;17114;52.314;8.910;2022-09-17T17:18:53;11.20;;;2.75;;
30307;SDS011;17114;52.314;8.910;2022-09-17T17:21:20;11.32;;;2.95;;
30307;SDS011;17114;52.314;8.910;2022-09-17T17:23:47;14.05;;;2.33;;
30307;SDS011;17114;52.314;8.910;2022-09-17T17:26:14;17.20;;;2.72;;
30307;SDS011;17114;52.314;8.910;2022-09-17T17:28:42;21.60;;;3.38;;
30307;SDS011;17114;52.314;8.910;2022-09-17T17:31:09;12.30;;;2.53;;
30307;SDS011;17114;52.314;8.910;2022-09-17T17:33:37;18.13;;;2.65;;
30307;SDS011;17114;52.314;8.910;2022-09-17T17:36:04;16.65;;;2.10;;
30307;SDS011;17114;52.314;8.910;2022-09-17T17:38:33;12.88;;;2.17;;
30307;SDS011;17114;52.314;8.910;2022-09-17T17:41:05;17.17;;;2.35;;
30307;SDS011;17114;52.314;8.910;2022-09-17T17:43:33;12.02;;;2.00;;
30307;SDS011;17114;52.314;8.910;2022-09-17T17:46:01;13.05;;;2.67;;
30307;SDS011;17114;52.314;8.910;2022-09-17T17:48:31;10.90;;;1.65;;
30307;SDS011;17114;52.314;8.910;2022-09-17T17:51:02;10.48;;;1.83;;
30307;SDS011;17114;52.314;8.910;2022-09-17T17:53:30;10.65;;;2.13;;
30307;SDS011;17114;52.314;8.910;2022-09-17T17:55:58;16.17;;;2.65;;
30307;SDS011;17114;52.314;8.910;2022-09-17T17:58:26;10.98;;;2.55;;
30307;SDS011;17114;52.314;8.910;2022-09-17T18:00:53;14.70;;;3.28;;
30307;SDS011;17114;52.314;8.910;2022-09-17T18:03:20;15.13;;;1.98;;
30307;SDS011;17114;52.314;8.910;2022-09-17T18:05:51;12.10;;;2.17;;
30307;SDS011;17114;52.314;8.910;2022-09-17T18:08:18;17.88;;;2.83;;
30307;SDS011;17114;52.314;8.910;2022-09-17T18:10:55;10.95;;;2.03;;
30307;SDS011;17114;52.314;8.910;2022-09-17T18:13:25;20.33;;;3.22;;
30307;SDS011;17114;52.314;8.910;2022-09-17T18:15:53;19.52;;;2.70;;